Terminal Aerodrome Forecast
Issued by NWS Melbourne, FL

Home | Current Version | Previous Version | Text Only | Print | Product List | Glossary On
Versions: 1 2 3 4 5 6 7 8 9 10 11 12 13 14 15
000
FTUS42 KMLB 042333
TAFDAB
TAF
KDAB 042333Z 0500/0524 25005KT P6SM FEW050 BKN250
     FM050300 VRB03KT P6SM SCT250
     FM051400 22006KT P6SM BKN250
     FM051800 12007KT P6SM VCSH SCT035 SCT080 PROB30 0518/0522 P6SM
      TS BKN040CB
     FM052200 13007KT P6SM VCSH BKN060 BKN250=

USA.gov is the U.S. government's official web portal to all federal, state and local government web resources and services.